createdAt,value
2023-03-25T00:01:18.563Z,11.73
2023-03-25T00:04:20.252Z,11.70
2023-03-25T00:07:22.206Z,11.67
2023-03-25T00:10:23.859Z,11.64
2023-03-25T00:13:25.705Z,11.57
2023-03-25T00:16:27.494Z,11.51
2023-03-25T00:19:29.045Z,11.46
2023-03-25T00:22:30.671Z,11.43
2023-03-25T00:25:32.268Z,11.38
2023-03-25T00:28:35.759Z,11.35
2023-03-25T00:31:37.304Z,11.31
2023-03-25T00:34:39.130Z,11.29
2023-03-25T00:37:43.691Z,11.28
2023-03-25T00:40:45.498Z,11.31
2023-03-25T00:43:47.056Z,11.30
2023-03-25T00:46:48.898Z,11.26
2023-03-25T00:49:50.662Z,11.21
2023-03-25T00:52:52.609Z,11.17
2023-03-25T00:55:57.910Z,11.14
2023-03-25T00:58:59.657Z,11.11
2023-03-25T01:02:01.220Z,11.06
2023-03-25T01:05:03.244Z,11.00
2023-03-25T01:08:04.818Z,10.96
2023-03-25T01:11:07.371Z,10.90
2023-03-25T01:14:13.712Z,10.84
2023-03-25T01:17:15.212Z,10.83
2023-03-25T01:20:16.913Z,10.90
2023-03-25T01:23:18.511Z,10.96
2023-03-25T01:26:20.377Z,10.99
2023-03-25T01:29:22.573Z,11.03
2023-03-25T01:32:25.377Z,11.06
2023-03-25T01:35:27.105Z,11.10
2023-03-25T01:38:29.953Z,11.10
2023-03-25T01:41:46.841Z,11.10
2023-03-25T01:44:51.939Z,11.13
2023-03-25T01:48:02.790Z,11.10
2023-03-25T01:51:13.526Z,11.11
2023-03-25T01:54:15.140Z,11.10
2023-03-25T01:57:19.238Z,11.10
2023-03-25T02:00:21.047Z,11.10
2023-03-25T02:03:23.249Z,11.09
2023-03-25T02:06:31.174Z,11.08
2023-03-25T02:09:32.875Z,11.05
2023-03-25T02:12:34.400Z,11.03
2023-03-25T02:16:02.284Z,11.02
2023-03-25T02:19:27.154Z,11.01
2023-03-25T02:22:54.987Z,10.99
2023-03-25T02:26:21.158Z,10.98
2023-03-25T02:29:35.148Z,10.96
2023-03-25T02:32:54.866Z,10.95
2023-03-25T02:36:31.116Z,10.90
2023-03-25T02:39:46.657Z,10.83
2023-03-25T02:42:54.291Z,10.79
2023-03-25T02:45:58.763Z,10.78
2023-03-25T02:49:10.819Z,10.77
2023-03-25T02:52:25.655Z,10.77
2023-03-25T02:55:29.028Z,10.77
2023-03-25T02:58:30.828Z,10.76
2023-03-25T03:01:36.232Z,10.75
2023-03-25T03:04:49.908Z,10.76
2023-03-25T03:08:06.481Z,10.77
2023-03-25T03:11:42.050Z,10.80
2023-03-25T03:14:56.774Z,10.85
2023-03-25T03:18:21.564Z,10.87
2023-03-25T03:21:32.444Z,10.91
2023-03-25T03:24:37.828Z,10.91
2023-03-25T03:27:46.641Z,10.91
2023-03-25T03:31:11.038Z,10.93
2023-03-25T03:34:34.232Z,10.93
2023-03-25T03:37:48.720Z,10.92
2023-03-25T03:40:53.624Z,10.93
2023-03-25T03:44:00.632Z,10.94
2023-03-25T03:47:05.951Z,10.95
2023-03-25T03:50:28.163Z,10.96
2023-03-25T03:53:33.248Z,10.97
2023-03-25T03:56:55.789Z,10.97
2023-03-25T04:00:10.876Z,10.95
2023-03-25T04:03:16.044Z,10.94
2023-03-25T04:06:22.136Z,10.94
2023-03-25T04:09:51.463Z,10.94
2023-03-25T04:12:54.241Z,10.94
2023-03-25T04:15:58.210Z,10.94
2023-03-25T04:19:00.075Z,10.99
2023-03-25T04:22:05.566Z,11.03
2023-03-25T04:25:07.538Z,11.04
2023-03-25T04:28:10.926Z,11.03
2023-03-25T04:31:16.923Z,11.02
2023-03-25T04:34:18.580Z,11.01
2023-03-25T04:37:20.093Z,10.99
2023-03-25T04:40:21.659Z,10.98
2023-03-25T04:43:23.170Z,10.98
2023-03-25T04:46:25.088Z,10.98
2023-03-25T04:49:26.725Z,10.98
2023-03-25T04:52:28.272Z,10.98
2023-03-25T04:55:29.838Z,10.96
2023-03-25T04:58:31.881Z,10.93
2023-03-25T05:01:35.538Z,10.91
2023-03-25T05:04:37.242Z,10.89
2023-03-25T05:07:38.839Z,10.86
2023-03-25T05:10:40.494Z,10.82
2023-03-25T05:13:42.204Z,10.74
2023-03-25T05:16:44.472Z,10.63
2023-03-25T05:19:46.050Z,10.53
2023-03-25T05:22:47.657Z,10.41
2023-03-25T05:25:51.226Z,10.32
2023-03-25T05:28:52.967Z,10.22
2023-03-25T05:31:54.558Z,10.12
2023-03-25T05:34:56.886Z,10.03
2023-03-25T05:37:58.464Z,9.94
2023-03-25T05:41:00.054Z,9.86
2023-03-25T05:44:01.659Z,9.79
2023-03-25T05:47:03.253Z,9.72
2023-03-25T05:50:05.298Z,9.66
2023-03-25T05:53:06.797Z,9.60
2023-03-25T05:56:08.661Z,9.57
2023-03-25T05:59:10.350Z,9.52
2023-03-25T06:02:14.652Z,9.50
2023-03-25T06:05:16.905Z,9.49
2023-03-25T06:08:19.064Z,9.46
2023-03-25T06:11:20.630Z,9.43
2023-03-25T06:14:22.260Z,9.43
2023-03-25T06:17:24.081Z,9.43
2023-03-25T06:20:25.914Z,9.46
2023-03-25T06:23:27.500Z,9.51
2023-03-25T06:26:29.307Z,9.56
2023-03-25T06:29:30.791Z,9.61
2023-03-25T06:32:32.560Z,9.65
2023-03-25T06:35:34.220Z,9.68
2023-03-25T06:38:35.789Z,9.73
2023-03-25T06:41:37.345Z,9.81
2023-03-25T06:44:39.012Z,9.91
2023-03-25T06:47:40.791Z,9.98
2023-03-25T06:50:43.759Z,10.04
2023-03-25T06:53:45.444Z,10.09
2023-03-25T06:56:47.443Z,10.12
2023-03-25T06:59:49.365Z,10.14
2023-03-25T07:02:51.080Z,10.14
2023-03-25T07:05:53.102Z,10.10
2023-03-25T07:08:55.018Z,9.98
2023-03-25T07:11:56.680Z,9.85
2023-03-25T07:14:58.251Z,9.81
2023-03-25T07:17:59.911Z,9.81
2023-03-25T07:21:01.569Z,9.83
2023-03-25T07:24:03.224Z,9.92
2023-03-25T07:27:04.962Z,9.97
2023-03-25T07:30:08.835Z,9.97
2023-03-25T07:33:10.556Z,9.96
2023-03-25T07:36:13.266Z,9.97
2023-03-25T07:39:15.137Z,10.00
2023-03-25T07:42:16.758Z,10.04
2023-03-25T07:45:18.499Z,10.09
2023-03-25T07:48:20.051Z,10.08
2023-03-25T07:51:21.612Z,10.12
2023-03-25T07:54:23.248Z,10.16
2023-03-25T07:57:24.802Z,10.19
2023-03-25T08:00:26.934Z,10.23
2023-03-25T08:03:28.907Z,10.25
2023-03-25T08:06:30.538Z,10.29
2023-03-25T08:09:32.532Z,10.35
2023-03-25T08:12:34.411Z,10.42
2023-03-25T08:15:36.100Z,10.53
2023-03-25T08:18:37.615Z,10.69
2023-03-25T08:21:39.275Z,10.86
2023-03-25T08:24:40.812Z,11.01
2023-03-25T08:27:42.824Z,11.02
2023-03-25T08:30:44.596Z,11.07
2023-03-25T08:33:46.131Z,11.15
2023-03-25T08:36:48.488Z,11.19
2023-03-25T08:39:50.025Z,11.25
2023-03-25T08:42:51.638Z,11.31
2023-03-25T08:45:53.823Z,11.36
2023-03-25T08:48:55.568Z,11.55
2023-03-25T08:51:58.078Z,11.72
2023-03-25T08:54:59.888Z,11.95
2023-03-25T08:58:03.346Z,12.12
2023-03-25T09:01:05.370Z,12.23
2023-03-25T09:04:06.966Z,12.39
2023-03-25T09:07:10.283Z,12.52
2023-03-25T09:10:13.222Z,12.58
2023-03-25T09:13:14.777Z,12.67
2023-03-25T09:16:16.398Z,12.72
2023-03-25T09:19:18.024Z,12.89
2023-03-25T09:22:19.673Z,12.92
2023-03-25T09:25:21.417Z,13.12
2023-03-25T09:28:23.123Z,13.84
2023-03-25T09:31:25.140Z,14.09
2023-03-25T09:34:29.642Z,14.27
2023-03-25T09:37:31.156Z,14.68
2023-03-25T09:40:34.194Z,15.42
2023-03-25T09:43:47.711Z,16.33
2023-03-25T09:46:49.644Z,17.02
2023-03-25T09:49:56.388Z,17.49
2023-03-25T09:53:05.226Z,17.64
2023-03-25T09:56:11.888Z,17.46
2023-03-25T09:59:25.682Z,17.09
2023-03-25T10:03:14.786Z,17.27
2023-03-25T10:06:23.047Z,17.30
2023-03-25T10:09:42.558Z,17.99
2023-03-25T10:13:05.470Z,18.58
2023-03-25T10:16:28.272Z,19.10
2023-03-25T10:20:06.803Z,19.72
2023-03-25T10:23:22.639Z,19.98
2023-03-25T10:26:44.384Z,20.22
2023-03-25T10:29:52.140Z,19.80
2023-03-25T10:32:58.725Z,19.05
2023-03-25T10:36:01.720Z,18.55
2023-03-25T10:39:06.786Z,18.62
2023-03-25T10:42:29.977Z,18.73
2023-03-25T10:45:32.585Z,18.93
2023-03-25T10:48:34.367Z,19.16
2023-03-25T10:51:36.935Z,19.67
2023-03-25T10:54:42.114Z,20.00
2023-03-25T10:57:44.049Z,19.96
2023-03-25T11:00:45.631Z,19.86
2023-03-25T11:03:50.448Z,19.83
2023-03-25T11:06:55.021Z,19.90
2023-03-25T11:10:11.157Z,19.48
2023-03-25T11:13:12.831Z,18.38
2023-03-25T11:16:14.581Z,17.94
2023-03-25T11:19:21.206Z,17.85
2023-03-25T11:22:26.852Z,18.49
2023-03-25T11:25:36.911Z,19.23
2023-03-25T11:28:44.681Z,19.62
2023-03-25T11:31:57.052Z,19.54
2023-03-25T11:35:01.775Z,19.67
2023-03-25T11:38:15.464Z,19.87
2023-03-25T11:41:17.125Z,19.89
2023-03-25T11:44:26.086Z,20.23
2023-03-25T11:47:35.782Z,20.14
2023-03-25T11:50:37.659Z,20.00
2023-03-25T11:53:44.841Z,19.87
2023-03-25T11:56:48.999Z,19.93
2023-03-25T12:00:00.881Z,20.21
2023-03-25T12:03:23.612Z,20.16
2023-03-25T12:06:25.378Z,19.62
2023-03-25T12:09:30.744Z,18.81
2023-03-25T12:12:48.175Z,19.14
2023-03-25T12:16:13.341Z,19.27
2023-03-25T12:19:42.992Z,18.65
2023-03-25T12:22:55.284Z,18.09
2023-03-25T12:26:02.325Z,17.86
2023-03-25T12:29:42.316Z,17.51
2023-03-25T12:33:15.252Z,17.79
2023-03-25T12:36:25.878Z,17.31
2023-03-25T12:39:47.623Z,16.99
2023-03-25T12:42:49.109Z,16.67
2023-03-25T12:45:59.252Z,16.48
2023-03-25T12:49:23.906Z,16.29
2023-03-25T12:52:48.974Z,16.32
2023-03-25T12:56:00.219Z,16.42
2023-03-25T12:59:22.696Z,16.14
2023-03-25T13:02:39.204Z,15.52
2023-03-25T13:05:48.090Z,15.20
2023-03-25T13:09:03.537Z,15.02
2023-03-25T13:12:26.489Z,14.67
2023-03-25T13:15:36.580Z,14.39
2023-03-25T13:19:03.923Z,14.04
2023-03-25T13:22:11.341Z,13.71
2023-03-25T13:25:42.926Z,13.51
2023-03-25T13:28:54.076Z,13.38
2023-03-25T13:31:58.478Z,13.32
2023-03-25T13:35:16.095Z,13.26
2023-03-25T13:38:21.870Z,13.25
2023-03-25T13:41:28.465Z,13.35
2023-03-25T13:44:40.894Z,13.43
2023-03-25T13:47:46.070Z,13.47
2023-03-25T13:50:47.881Z,13.54
2023-03-25T13:53:54.311Z,13.55
2023-03-25T13:57:35.973Z,13.44
2023-03-25T14:01:04.013Z,13.37
2023-03-25T14:04:21.869Z,13.41
2023-03-25T14:07:48.898Z,13.46
2023-03-25T14:10:54.536Z,13.46
2023-03-25T14:14:01.303Z,13.56
2023-03-25T14:17:04.649Z,13.68
2023-03-25T14:20:07.615Z,13.83
2023-03-25T14:23:15.747Z,13.96
2023-03-25T14:26:18.037Z,13.98
2023-03-25T14:29:46.578Z,14.12
2023-03-25T14:32:48.687Z,14.48
2023-03-25T14:35:50.715Z,14.32
2023-03-25T14:38:56.148Z,14.03
2023-03-25T14:42:02.351Z,13.82
2023-03-25T14:45:32.540Z,13.68
2023-03-25T14:48:36.829Z,13.61
2023-03-25T14:51:38.705Z,13.53
2023-03-25T14:54:40.476Z,13.44
2023-03-25T14:57:43.055Z,13.38
2023-03-25T15:01:00.180Z,13.66
2023-03-25T15:04:15.270Z,13.74
2023-03-25T15:07:19.114Z,13.76
2023-03-25T15:10:24.646Z,13.65
2023-03-25T15:13:29.643Z,13.90
2023-03-25T15:16:36.039Z,14.89
2023-03-25T15:20:02.464Z,14.95
2023-03-25T15:23:19.177Z,14.63
2023-03-25T15:26:23.819Z,14.45
2023-03-25T15:29:37.533Z,14.28
2023-03-25T15:33:09.066Z,14.06
2023-03-25T15:36:20.160Z,13.75
2023-03-25T15:39:38.004Z,13.52
2023-03-25T15:42:50.163Z,13.34
2023-03-25T15:46:00.989Z,13.17
2023-03-25T15:49:24.276Z,13.00
2023-03-25T15:52:25.920Z,12.86
2023-03-25T15:55:29.507Z,12.77
2023-03-25T15:58:37.348Z,12.70
2023-03-25T16:01:44.257Z,12.61
2023-03-25T16:04:47.999Z,12.50
2023-03-25T16:07:49.855Z,12.35
2023-03-25T16:10:51.739Z,12.16
2023-03-25T16:14:14.216Z,11.91
2023-03-25T16:17:17.549Z,11.51
2023-03-25T16:20:22.612Z,11.31
2023-03-25T16:23:25.121Z,11.24
2023-03-25T16:26:41.782Z,11.27
2023-03-25T16:29:48.280Z,11.33
2023-03-25T16:32:50.303Z,11.30
2023-03-25T16:36:01.433Z,11.35
2023-03-25T16:39:03.494Z,11.35
2023-03-25T16:42:30.471Z,11.37
2023-03-25T16:45:33.291Z,11.19
2023-03-25T16:48:40.524Z,11.07
2023-03-25T16:51:44.579Z,10.91
2023-03-25T16:54:52.488Z,10.91
2023-03-25T16:57:54.738Z,10.82
2023-03-25T17:00:56.983Z,10.71
2023-03-25T17:04:10.318Z,10.68
2023-03-25T17:07:15.600Z,10.63
2023-03-25T17:10:29.147Z,10.62
2023-03-25T17:13:37.753Z,10.60
2023-03-25T17:16:39.530Z,10.53
2023-03-25T17:19:45.883Z,10.44
2023-03-25T17:23:16.780Z,10.37
2023-03-25T17:26:19.809Z,10.38
2023-03-25T17:29:21.670Z,10.38
2023-03-25T17:32:23.518Z,10.33
2023-03-25T17:35:30.855Z,10.36
2023-03-25T17:38:36.236Z,10.30
2023-03-25T17:41:38.922Z,10.17
2023-03-25T17:44:43.908Z,10.10
2023-03-25T17:47:46.000Z,10.07
2023-03-25T17:50:55.641Z,9.96
2023-03-25T17:53:57.532Z,9.89
2023-03-25T17:56:59.420Z,9.84
2023-03-25T18:00:01.304Z,9.82
2023-03-25T18:03:10.153Z,9.83
2023-03-25T18:06:12.361Z,9.84
2023-03-25T18:09:21.403Z,9.85
2023-03-25T18:12:23.178Z,9.83
2023-03-25T18:15:24.992Z,9.79
2023-03-25T18:18:27.033Z,9.80
2023-03-25T18:21:28.661Z,9.79
2023-03-25T18:24:30.478Z,9.77
2023-03-25T18:27:42.694Z,9.71
2023-03-25T18:30:55.345Z,9.67
2023-03-25T18:33:57.156Z,9.61
2023-03-25T18:36:58.964Z,9.54
2023-03-25T18:40:00.932Z,9.48
2023-03-25T18:43:03.398Z,9.39
2023-03-25T18:46:05.314Z,9.31
2023-03-25T18:49:18.394Z,9.24
2023-03-25T18:52:20.168Z,9.16
2023-03-25T18:55:22.045Z,9.06
2023-03-25T18:58:26.309Z,8.94
2023-03-25T19:01:28.378Z,8.81
2023-03-25T19:04:30.062Z,8.74
2023-03-25T19:07:31.681Z,8.67
2023-03-25T19:10:34.439Z,8.60
2023-03-25T19:13:36.111Z,8.52
2023-03-25T19:16:38.086Z,8.45
2023-03-25T19:19:40.076Z,8.40
2023-03-25T19:22:41.914Z,8.37
2023-03-25T19:25:48.624Z,8.33
2023-03-25T19:28:50.320Z,8.34
2023-03-25T19:31:52.070Z,8.34
2023-03-25T19:34:54.572Z,8.38
2023-03-25T19:37:57.345Z,8.44
2023-03-25T19:41:07.946Z,8.43
2023-03-25T19:44:09.565Z,8.28
2023-03-25T19:47:11.100Z,8.18
2023-03-25T19:50:18.266Z,8.12
2023-03-25T19:53:19.927Z,8.02
2023-03-25T19:56:21.538Z,7.92
2023-03-25T19:59:23.164Z,7.83
2023-03-25T20:02:24.802Z,7.71
2023-03-25T20:05:28.378Z,7.59
2023-03-25T20:08:30.353Z,7.55
2023-03-25T20:11:32.804Z,7.56
2023-03-25T20:14:34.570Z,7.56
2023-03-25T20:17:37.259Z,7.60
2023-03-25T20:20:40.065Z,7.68
2023-03-25T20:23:41.726Z,7.74
2023-03-25T20:26:43.516Z,7.80
2023-03-25T20:29:45.268Z,7.83
2023-03-25T20:32:48.755Z,7.83
2023-03-25T20:35:50.931Z,7.73
2023-03-25T20:38:57.794Z,7.75
2023-03-25T20:41:59.918Z,7.84
2023-03-25T20:45:01.616Z,7.82
2023-03-25T20:48:03.539Z,7.75
2023-03-25T20:51:07.498Z,7.67
2023-03-25T20:54:10.274Z,7.59
2023-03-25T20:57:12.263Z,7.53
2023-03-25T21:00:14.335Z,7.47
2023-03-25T21:03:16.237Z,7.43
2023-03-25T21:06:23.744Z,7.40
2023-03-25T21:09:27.562Z,7.41
2023-03-25T21:12:40.577Z,7.51
2023-03-25T21:15:45.313Z,7.56
2023-03-25T21:18:47.193Z,7.61
2023-03-25T21:21:49.140Z,7.67
2023-03-25T21:24:50.809Z,7.74
2023-03-25T21:27:52.795Z,7.84
2023-03-25T21:31:00.700Z,7.94
2023-03-25T21:34:02.622Z,8.04
2023-03-25T21:37:04.228Z,8.09
2023-03-25T21:40:08.603Z,8.18
2023-03-25T21:43:10.579Z,8.23
2023-03-25T21:46:12.784Z,8.25
2023-03-25T21:49:14.981Z,8.26
2023-03-25T21:52:16.751Z,8.27
2023-03-25T21:55:18.541Z,8.26
2023-03-25T21:58:27.721Z,8.25
2023-03-25T22:01:29.929Z,8.28
2023-03-25T22:04:31.923Z,8.29
2023-03-25T22:07:33.719Z,8.32
2023-03-25T22:10:35.511Z,8.42
2023-03-25T22:13:37.204Z,8.51
2023-03-25T22:16:39.001Z,8.58
2023-03-25T22:19:40.625Z,8.59
2023-03-25T22:22:42.239Z,8.57
2023-03-25T22:25:44.933Z,8.58
2023-03-25T22:28:46.914Z,8.60
2023-03-25T22:31:48.516Z,8.58
2023-03-25T22:34:50.236Z,8.56
2023-03-25T22:37:51.873Z,8.51
2023-03-25T22:40:53.687Z,8.48
2023-03-25T22:43:55.316Z,8.56
2023-03-25T22:46:57.612Z,8.61
2023-03-25T22:49:59.362Z,8.61
2023-03-25T22:53:01.084Z,8.52
2023-03-25T22:56:03.315Z,8.51
2023-03-25T22:59:07.193Z,8.51
2023-03-25T23:02:10.596Z,8.48
2023-03-25T23:05:12.337Z,8.45
2023-03-25T23:08:14.187Z,8.44
2023-03-25T23:11:18.643Z,8.39
2023-03-25T23:14:20.455Z,8.36
2023-03-25T23:17:23.119Z,8.30
2023-03-25T23:20:24.938Z,8.26
2023-03-25T23:23:26.850Z,8.24
2023-03-25T23:26:32.367Z,8.20
2023-03-25T23:29:35.209Z,8.13
2023-03-25T23:32:36.885Z,8.05
2023-03-25T23:35:38.593Z,8.00
2023-03-25T23:38:40.606Z,7.97
2023-03-25T23:41:42.675Z,7.92
2023-03-25T23:44:44.390Z,7.88
2023-03-25T23:47:46.013Z,7.83
2023-03-25T23:50:47.914Z,7.78
2023-03-25T23:53:51.000Z,7.69
2023-03-25T23:56:53.105Z,7.61
2023-03-25T23:59:54.802Z,7.51
